sensor_id;sensor_type;location;lat;lon;timestamp;P1;durP1;ratioP1;P2;durP2;ratioP2
54430;SDS011;40342;52.998;5.862;2023-07-13T00:01:14;2.95;;;1.40;;
54430;SDS011;40342;52.998;5.862;2023-07-13T00:03:41;6.38;;;1.73;;
54430;SDS011;40342;52.998;5.862;2023-07-13T00:06:07;6.28;;;1.80;;
54430;SDS011;40342;52.998;5.862;2023-07-13T00:08:33;6.40;;;1.88;;
54430;SDS011;40342;52.998;5.862;2023-07-13T00:11:00;8.85;;;2.08;;
54430;SDS011;40342;52.998;5.862;2023-07-13T00:13:27;8.30;;;1.60;;
54430;SDS011;40342;52.998;5.862;2023-07-13T00:15:54;7.38;;;1.77;;
54430;SDS011;40342;52.998;5.862;2023-07-13T00:18:21;5.43;;;1.70;;
54430;SDS011;40342;52.998;5.862;2023-07-13T00:20:46;3.90;;;1.23;;
54430;SDS011;40342;52.998;5.862;2023-07-13T00:23:13;3.25;;;1.02;;
54430;SDS011;40342;52.998;5.862;2023-07-13T00:25:39;4.90;;;1.15;;
54430;SDS011;40342;52.998;5.862;2023-07-13T00:28:05;3.40;;;1.00;;
54430;SDS011;40342;52.998;5.862;2023-07-13T00:30:30;1.23;;;0.73;;
54430;SDS011;40342;52.998;5.862;2023-07-13T00:32:56;4.30;;;0.93;;
54430;SDS011;40342;52.998;5.862;2023-07-13T00:35:22;3.42;;;0.90;;
54430;SDS011;40342;52.998;5.862;2023-07-13T00:37:48;2.20;;;0.85;;
54430;SDS011;40342;52.998;5.862;2023-07-13T00:40:15;2.55;;;0.70;;
54430;SDS011;40342;52.998;5.862;2023-07-13T00:42:41;1.40;;;0.77;;
54430;SDS011;40342;52.998;5.862;2023-07-13T00:46:15;1.83;;;0.80;;
54430;SDS011;40342;52.998;5.862;2023-07-13T00:47:53;1.92;;;0.80;;
54430;SDS011;40342;52.998;5.862;2023-07-13T00:50:21;4.22;;;0.65;;
54430;SDS011;40342;52.998;5.862;2023-07-13T00:52:52;3.38;;;0.95;;
54430;SDS011;40342;52.998;5.862;2023-07-13T00:55:20;1.20;;;0.93;;
54430;SDS011;40342;52.998;5.862;2023-07-13T00:57:47;3.25;;;0.70;;
54430;SDS011;40342;52.998;5.862;2023-07-13T01:00:12;5.03;;;0.80;;
54430;SDS011;40342;52.998;5.862;2023-07-13T01:02:39;2.88;;;0.68;;
54430;SDS011;40342;52.998;5.862;2023-07-13T01:05:11;2.33;;;0.77;;
54430;SDS011;40342;52.998;5.862;2023-07-13T01:07:39;2.90;;;0.93;;
54430;SDS011;40342;52.998;5.862;2023-07-13T01:10:06;4.18;;;1.00;;
54430;SDS011;40342;52.998;5.862;2023-07-13T01:12:32;4.78;;;1.35;;
54430;SDS011;40342;52.998;5.862;2023-07-13T01:14:58;4.15;;;0.80;;
54430;SDS011;40342;52.998;5.862;2023-07-13T01:17:25;2.65;;;0.95;;
54430;SDS011;40342;52.998;5.862;2023-07-13T01:19:53;2.25;;;1.02;;
54430;SDS011;40342;52.998;5.862;2023-07-13T01:22:19;4.18;;;1.23;;
54430;SDS011;40342;52.998;5.862;2023-07-13T01:24:50;4.18;;;1.17;;
54430;SDS011;40342;52.998;5.862;2023-07-13T01:27:19;2.53;;;0.88;;
54430;SDS011;40342;52.998;5.862;2023-07-13T01:29:48;3.85;;;1.90;;
54430;SDS011;40342;52.998;5.862;2023-07-13T01:32:22;4.45;;;1.40;;
54430;SDS011;40342;52.998;5.862;2023-07-13T01:34:52;3.85;;;1.30;;
54430;SDS011;40342;52.998;5.862;2023-07-13T01:37:19;4.70;;;1.42;;
54430;SDS011;40342;52.998;5.862;2023-07-13T01:39:45;5.85;;;1.77;;
54430;SDS011;40342;52.998;5.862;2023-07-13T01:42:12;2.13;;;1.35;;
54430;SDS011;40342;52.998;5.862;2023-07-13T01:44:38;6.35;;;1.50;;
54430;SDS011;40342;52.998;5.862;2023-07-13T01:47:04;9.05;;;1.63;;
54430;SDS011;40342;52.998;5.862;2023-07-13T01:49:30;5.95;;;1.35;;
54430;SDS011;40342;52.998;5.862;2023-07-13T01:51:55;3.83;;;1.63;;
54430;SDS011;40342;52.998;5.862;2023-07-13T01:54:21;8.93;;;2.10;;
54430;SDS011;40342;52.998;5.862;2023-07-13T01:56:47;3.90;;;1.73;;
54430;SDS011;40342;52.998;5.862;2023-07-13T01:59:12;4.55;;;1.58;;
54430;SDS011;40342;52.998;5.862;2023-07-13T02:01:38;5.55;;;2.13;;
54430;SDS011;40342;52.998;5.862;2023-07-13T02:04:04;6.10;;;2.08;;
54430;SDS011;40342;52.998;5.862;2023-07-13T02:06:30;4.82;;;1.80;;
54430;SDS011;40342;52.998;5.862;2023-07-13T02:08:56;7.43;;;2.25;;
54430;SDS011;40342;52.998;5.862;2023-07-13T02:11:22;6.60;;;1.95;;
54430;SDS011;40342;52.998;5.862;2023-07-13T02:13:48;6.13;;;1.80;;
54430;SDS011;40342;52.998;5.862;2023-07-13T02:16:13;7.50;;;1.90;;
54430;SDS011;40342;52.998;5.862;2023-07-13T02:18:39;12.35;;;2.50;;
54430;SDS011;40342;52.998;5.862;2023-07-13T02:21:05;11.20;;;2.50;;
54430;SDS011;40342;52.998;5.862;2023-07-13T02:23:31;7.97;;;2.10;;
54430;SDS011;40342;52.998;5.862;2023-07-13T02:25:57;11.70;;;2.78;;
54430;SDS011;40342;52.998;5.862;2023-07-13T02:28:23;10.48;;;2.28;;
54430;SDS011;40342;52.998;5.862;2023-07-13T02:30:49;10.43;;;2.67;;
54430;SDS011;40342;52.998;5.862;2023-07-13T02:33:15;9.05;;;2.15;;
54430;SDS011;40342;52.998;5.862;2023-07-13T02:35:41;7.82;;;1.90;;
54430;SDS011;40342;52.998;5.862;2023-07-13T02:38:07;14.50;;;2.97;;
54430;SDS011;40342;52.998;5.862;2023-07-13T02:40:33;12.02;;;2.60;;
54430;SDS011;40342;52.998;5.862;2023-07-13T02:43:00;14.25;;;2.60;;
54430;SDS011;40342;52.998;5.862;2023-07-13T02:45:27;9.20;;;2.72;;
54430;SDS011;40342;52.998;5.862;2023-07-13T02:47:53;13.35;;;3.08;;
54430;SDS011;40342;52.998;5.862;2023-07-13T02:50:19;12.48;;;2.53;;
54430;SDS011;40342;52.998;5.862;2023-07-13T02:52:45;10.23;;;3.00;;
54430;SDS011;40342;52.998;5.862;2023-07-13T02:55:11;11.02;;;3.05;;
54430;SDS011;40342;52.998;5.862;2023-07-13T02:57:36;12.75;;;3.22;;
54430;SDS011;40342;52.998;5.862;2023-07-13T03:00:03;12.00;;;2.90;;
54430;SDS011;40342;52.998;5.862;2023-07-13T03:02:33;15.48;;;3.38;;
54430;SDS011;40342;52.998;5.862;2023-07-13T03:04:59;15.13;;;3.20;;
54430;SDS011;40342;52.998;5.862;2023-07-13T03:07:24;12.02;;;2.80;;
54430;SDS011;40342;52.998;5.862;2023-07-13T03:09:55;12.63;;;3.05;;
54430;SDS011;40342;52.998;5.862;2023-07-13T03:12:22;9.52;;;2.92;;
54430;SDS011;40342;52.998;5.862;2023-07-13T03:14:48;11.65;;;3.42;;
54430;SDS011;40342;52.998;5.862;2023-07-13T03:17:14;15.50;;;3.25;;
54430;SDS011;40342;52.998;5.862;2023-07-13T03:19:39;13.13;;;2.95;;
54430;SDS011;40342;52.998;5.862;2023-07-13T03:22:05;10.48;;;2.75;;
54430;SDS011;40342;52.998;5.862;2023-07-13T03:24:32;11.27;;;2.75;;
54430;SDS011;40342;52.998;5.862;2023-07-13T03:27:00;14.35;;;2.60;;
54430;SDS011;40342;52.998;5.862;2023-07-13T03:29:27;10.70;;;2.47;;
54430;SDS011;40342;52.998;5.862;2023-07-13T03:31:52;7.07;;;2.13;;
54430;SDS011;40342;52.998;5.862;2023-07-13T03:34:18;8.02;;;2.38;;
54430;SDS011;40342;52.998;5.862;2023-07-13T03:36:44;13.82;;;2.65;;
54430;SDS011;40342;52.998;5.862;2023-07-13T03:39:09;8.20;;;2.17;;
54430;SDS011;40342;52.998;5.862;2023-07-13T03:41:35;7.35;;;2.17;;
54430;SDS011;40342;52.998;5.862;2023-07-13T03:44:01;6.55;;;1.98;;
54430;SDS011;40342;52.998;5.862;2023-07-13T03:46:27;6.50;;;1.85;;
54430;SDS011;40342;52.998;5.862;2023-07-13T03:48:53;6.38;;;1.90;;
54430;SDS011;40342;52.998;5.862;2023-07-13T03:51:19;7.03;;;1.85;;
54430;SDS011;40342;52.998;5.862;2023-07-13T03:53:45;7.32;;;1.85;;
54430;SDS011;40342;52.998;5.862;2023-07-13T03:56:12;6.20;;;2.03;;
54430;SDS011;40342;52.998;5.862;2023-07-13T03:58:40;5.50;;;1.90;;
54430;SDS011;40342;52.998;5.862;2023-07-13T04:01:08;5.97;;;2.30;;
54430;SDS011;40342;52.998;5.862;2023-07-13T04:03:35;8.02;;;2.13;;
54430;SDS011;40342;52.998;5.862;2023-07-13T04:06:02;7.90;;;2.28;;
54430;SDS011;40342;52.998;5.862;2023-07-13T04:08:30;4.97;;;1.85;;
54430;SDS011;40342;52.998;5.862;2023-07-13T04:10:58;5.53;;;2.22;;
54430;SDS011;40342;52.998;5.862;2023-07-13T04:13:24;8.10;;;2.00;;
54430;SDS011;40342;52.998;5.862;2023-07-13T04:15:51;6.38;;;2.30;;
54430;SDS011;40342;52.998;5.862;2023-07-13T04:18:17;9.82;;;2.22;;
54430;SDS011;40342;52.998;5.862;2023-07-13T04:20:44;8.32;;;2.17;;
54430;SDS011;40342;52.998;5.862;2023-07-13T04:23:11;6.15;;;1.67;;
54430;SDS011;40342;52.998;5.862;2023-07-13T04:25:36;9.32;;;3.30;;
54430;SDS011;40342;52.998;5.862;2023-07-13T04:28:03;6.22;;;2.00;;
54430;SDS011;40342;52.998;5.862;2023-07-13T04:30:29;5.68;;;1.60;;
54430;SDS011;40342;52.998;5.862;2023-07-13T04:32:55;5.88;;;1.70;;
54430;SDS011;40342;52.998;5.862;2023-07-13T04:35:21;11.43;;;2.28;;
54430;SDS011;40342;52.998;5.862;2023-07-13T04:37:50;9.93;;;2.00;;
54430;SDS011;40342;52.998;5.862;2023-07-13T04:40:19;7.00;;;1.80;;
54430;SDS011;40342;52.998;5.862;2023-07-13T04:42:45;5.25;;;1.58;;
54430;SDS011;40342;52.998;5.862;2023-07-13T04:45:12;8.05;;;1.98;;
54430;SDS011;40342;52.998;5.862;2023-07-13T04:47:38;5.55;;;1.88;;
54430;SDS011;40342;52.998;5.862;2023-07-13T04:50:04;4.85;;;1.73;;
54430;SDS011;40342;52.998;5.862;2023-07-13T04:52:31;7.30;;;1.83;;
54430;SDS011;40342;52.998;5.862;2023-07-13T04:54:58;5.25;;;1.88;;
54430;SDS011;40342;52.998;5.862;2023-07-13T04:57:24;10.23;;;2.58;;
54430;SDS011;40342;52.998;5.862;2023-07-13T04:59:50;4.80;;;1.52;;
54430;SDS011;40342;52.998;5.862;2023-07-13T05:02:15;8.88;;;2.30;;
54430;SDS011;40342;52.998;5.862;2023-07-13T05:04:41;8.02;;;2.38;;
54430;SDS011;40342;52.998;5.862;2023-07-13T05:07:07;9.65;;;2.00;;
54430;SDS011;40342;52.998;5.862;2023-07-13T05:09:32;7.97;;;2.10;;
54430;SDS011;40342;52.998;5.862;2023-07-13T05:11:58;6.28;;;2.00;;
54430;SDS011;40342;52.998;5.862;2023-07-13T05:14:24;8.82;;;2.67;;
54430;SDS011;40342;52.998;5.862;2023-07-13T05:16:49;6.43;;;1.85;;
54430;SDS011;40342;52.998;5.862;2023-07-13T05:19:15;5.40;;;1.63;;
54430;SDS011;40342;52.998;5.862;2023-07-13T05:21:40;8.00;;;2.13;;
54430;SDS011;40342;52.998;5.862;2023-07-13T05:24:06;6.80;;;2.28;;
54430;SDS011;40342;52.998;5.862;2023-07-13T05:26:32;7.38;;;1.73;;
54430;SDS011;40342;52.998;5.862;2023-07-13T05:28:57;6.30;;;1.90;;
54430;SDS011;40342;52.998;5.862;2023-07-13T05:31:23;7.43;;;1.63;;
54430;SDS011;40342;52.998;5.862;2023-07-13T05:33:49;6.82;;;1.70;;
54430;SDS011;40342;52.998;5.862;2023-07-13T05:36:14;5.93;;;2.40;;
54430;SDS011;40342;52.998;5.862;2023-07-13T05:38:40;8.15;;;2.08;;
54430;SDS011;40342;52.998;5.862;2023-07-13T05:41:06;7.93;;;2.38;;
54430;SDS011;40342;52.998;5.862;2023-07-13T05:43:32;8.00;;;2.25;;
54430;SDS011;40342;52.998;5.862;2023-07-13T05:45:58;7.28;;;1.73;;
54430;SDS011;40342;52.998;5.862;2023-07-13T05:48:23;6.50;;;1.90;;
54430;SDS011;40342;52.998;5.862;2023-07-13T05:50:49;9.00;;;1.80;;
54430;SDS011;40342;52.998;5.862;2023-07-13T05:53:15;9.60;;;2.15;;
54430;SDS011;40342;52.998;5.862;2023-07-13T05:55:44;12.25;;;2.60;;
54430;SDS011;40342;52.998;5.862;2023-07-13T05:58:18;7.55;;;2.05;;
54430;SDS011;40342;52.998;5.862;2023-07-13T06:00:44;8.90;;;2.10;;
54430;SDS011;40342;52.998;5.862;2023-07-13T06:03:11;7.45;;;2.40;;
54430;SDS011;40342;52.998;5.862;2023-07-13T06:05:36;6.90;;;2.45;;
54430;SDS011;40342;52.998;5.862;2023-07-13T06:08:03;8.30;;;2.30;;
54430;SDS011;40342;52.998;5.862;2023-07-13T06:10:32;7.30;;;2.05;;
54430;SDS011;40342;52.998;5.862;2023-07-13T06:12:58;6.68;;;1.80;;
54430;SDS011;40342;52.998;5.862;2023-07-13T06:15:24;8.30;;;2.10;;
54430;SDS011;40342;52.998;5.862;2023-07-13T06:17:49;7.22;;;1.95;;
54430;SDS011;40342;52.998;5.862;2023-07-13T06:20:15;7.05;;;2.40;;
54430;SDS011;40342;52.998;5.862;2023-07-13T06:22:41;5.50;;;1.52;;
54430;SDS011;40342;52.998;5.862;2023-07-13T06:25:06;4.38;;;1.88;;
54430;SDS011;40342;52.998;5.862;2023-07-13T06:27:32;8.63;;;2.10;;
54430;SDS011;40342;52.998;5.862;2023-07-13T06:29:58;6.00;;;1.88;;
54430;SDS011;40342;52.998;5.862;2023-07-13T06:32:23;3.90;;;1.70;;
54430;SDS011;40342;52.998;5.862;2023-07-13T06:34:49;9.00;;;1.75;;
54430;SDS011;40342;52.998;5.862;2023-07-13T06:37:16;7.68;;;1.70;;
54430;SDS011;40342;52.998;5.862;2023-07-13T06:39:42;9.20;;;2.05;;
54430;SDS011;40342;52.998;5.862;2023-07-13T06:42:08;5.55;;;1.90;;
54430;SDS011;40342;52.998;5.862;2023-07-13T06:44:34;4.45;;;1.60;;
54430;SDS011;40342;52.998;5.862;2023-07-13T06:47:00;9.10;;;2.20;;
54430;SDS011;40342;52.998;5.862;2023-07-13T06:49:25;4.65;;;1.50;;
54430;SDS011;40342;52.998;5.862;2023-07-13T06:51:51;5.55;;;1.83;;
54430;SDS011;40342;52.998;5.862;2023-07-13T06:54:17;6.93;;;1.77;;
54430;SDS011;40342;52.998;5.862;2023-07-13T06:56:42;11.60;;;2.05;;
54430;SDS011;40342;52.998;5.862;2023-07-13T06:59:08;3.85;;;1.52;;
54430;SDS011;40342;52.998;5.862;2023-07-13T07:01:34;4.13;;;1.63;;
54430;SDS011;40342;52.998;5.862;2023-07-13T07:03:59;4.50;;;1.80;;
54430;SDS011;40342;52.998;5.862;2023-07-13T07:06:25;3.03;;;1.50;;
54430;SDS011;40342;52.998;5.862;2023-07-13T07:08:52;3.42;;;1.88;;
54430;SDS011;40342;52.998;5.862;2023-07-13T07:11:22;6.72;;;1.92;;
54430;SDS011;40342;52.998;5.862;2023-07-13T07:13:49;6.97;;;1.77;;
54430;SDS011;40342;52.998;5.862;2023-07-13T07:16:18;6.00;;;1.70;;
54430;SDS011;40342;52.998;5.862;2023-07-13T07:18:44;8.43;;;1.63;;
54430;SDS011;40342;52.998;5.862;2023-07-13T07:21:11;4.15;;;1.50;;
54430;SDS011;40342;52.998;5.862;2023-07-13T07:23:37;10.02;;;1.88;;
54430;SDS011;40342;52.998;5.862;2023-07-13T07:26:03;3.03;;;1.50;;
54430;SDS011;40342;52.998;5.862;2023-07-13T07:28:29;4.95;;;1.55;;
54430;SDS011;40342;52.998;5.862;2023-07-13T07:30:56;5.63;;;1.55;;
54430;SDS011;40342;52.998;5.862;2023-07-13T07:33:23;9.18;;;2.30;;
54430;SDS011;40342;52.998;5.862;2023-07-13T07:35:49;5.40;;;1.75;;
54430;SDS011;40342;52.998;5.862;2023-07-13T07:38:15;7.53;;;1.73;;
54430;SDS011;40342;52.998;5.862;2023-07-13T07:40:41;4.43;;;1.60;;
54430;SDS011;40342;52.998;5.862;2023-07-13T07:43:08;7.13;;;1.65;;
54430;SDS011;40342;52.998;5.862;2023-07-13T07:45:34;7.20;;;2.03;;
54430;SDS011;40342;52.998;5.862;2023-07-13T07:48:02;7.65;;;1.90;;
54430;SDS011;40342;52.998;5.862;2023-07-13T07:50:28;7.93;;;1.95;;
54430;SDS011;40342;52.998;5.862;2023-07-13T07:52:54;5.43;;;1.38;;
54430;SDS011;40342;52.998;5.862;2023-07-13T07:55:23;7.80;;;1.67;;
54430;SDS011;40342;52.998;5.862;2023-07-13T07:57:52;7.68;;;2.00;;
54430;SDS011;40342;52.998;5.862;2023-07-13T08:00:18;5.18;;;1.63;;
54430;SDS011;40342;52.998;5.862;2023-07-13T08:02:45;4.97;;;1.20;;
54430;SDS011;40342;52.998;5.862;2023-07-13T08:05:10;6.28;;;1.65;;
54430;SDS011;40342;52.998;5.862;2023-07-13T08:07:37;2.72;;;1.50;;
54430;SDS011;40342;52.998;5.862;2023-07-13T08:10:04;5.20;;;2.00;;
54430;SDS011;40342;52.998;5.862;2023-07-13T08:12:33;7.28;;;1.83;;
54430;SDS011;40342;52.998;5.862;2023-07-13T08:14:59;3.50;;;1.73;;
54430;SDS011;40342;52.998;5.862;2023-07-13T08:17:25;4.53;;;1.75;;
54430;SDS011;40342;52.998;5.862;2023-07-13T08:19:51;4.28;;;1.80;;
54430;SDS011;40342;52.998;5.862;2023-07-13T08:22:17;4.60;;;1.80;;
54430;SDS011;40342;52.998;5.862;2023-07-13T08:24:42;6.20;;;1.70;;
54430;SDS011;40342;52.998;5.862;2023-07-13T08:27:08;5.85;;;1.60;;
54430;SDS011;40342;52.998;5.862;2023-07-13T08:29:36;4.10;;;1.42;;
54430;SDS011;40342;52.998;5.862;2023-07-13T08:32:02;3.05;;;1.30;;
54430;SDS011;40342;52.998;5.862;2023-07-13T08:34:29;3.05;;;1.45;;
54430;SDS011;40342;52.998;5.862;2023-07-13T08:36:55;5.18;;;1.48;;
54430;SDS011;40342;52.998;5.862;2023-07-13T08:39:20;4.10;;;1.33;;
54430;SDS011;40342;52.998;5.862;2023-07-13T08:41:46;4.47;;;1.33;;
54430;SDS011;40342;52.998;5.862;2023-07-13T08:44:25;3.25;;;1.30;;
54430;SDS011;40342;52.998;5.862;2023-07-13T08:46:59;3.38;;;1.13;;
54430;SDS011;40342;52.998;5.862;2023-07-13T08:49:26;3.50;;;1.40;;
54430;SDS011;40342;52.998;5.862;2023-07-13T08:54:31;3.67;;;1.20;;
54430;SDS011;40342;52.998;5.862;2023-07-13T08:57:12;4.75;;;1.52;;
54430;SDS011;40342;52.998;5.862;2023-07-13T08:59:40;2.22;;;1.00;;
54430;SDS011;40342;52.998;5.862;2023-07-13T09:04:43;4.22;;;1.27;;
54430;SDS011;40342;52.998;5.862;2023-07-13T09:10:00;3.65;;;1.10;;
54430;SDS011;40342;52.998;5.862;2023-07-13T09:15:39;2.00;;;1.00;;
54430;SDS011;40342;52.998;5.862;2023-07-13T09:18:11;1.73;;;1.15;;
54430;SDS011;40342;52.998;5.862;2023-07-13T09:21:07;2.35;;;1.20;;
54430;SDS011;40342;52.998;5.862;2023-07-13T09:23:56;2.72;;;1.30;;
54430;SDS011;40342;52.998;5.862;2023-07-13T09:26:26;3.80;;;1.23;;
54430;SDS011;40342;52.998;5.862;2023-07-13T09:28:59;3.03;;;1.00;;
54430;SDS011;40342;52.998;5.862;2023-07-13T09:31:39;1.20;;;0.95;;
54430;SDS011;40342;52.998;5.862;2023-07-13T09:34:12;2.45;;;0.90;;
54430;SDS011;40342;52.998;5.862;2023-07-13T09:36:38;2.20;;;0.82;;
54430;SDS011;40342;52.998;5.862;2023-07-13T09:44:17;4.57;;;1.10;;
54430;SDS011;40342;52.998;5.862;2023-07-13T09:46:54;2.22;;;1.10;;
54430;SDS011;40342;52.998;5.862;2023-07-13T09:49:24;2.42;;;0.90;;
54430;SDS011;40342;52.998;5.862;2023-07-13T09:52:11;5.78;;;1.33;;
54430;SDS011;40342;52.998;5.862;2023-07-13T09:54:39;3.83;;;0.88;;
54430;SDS011;40342;52.998;5.862;2023-07-13T09:57:13;1.65;;;1.00;;
54430;SDS011;40342;52.998;5.862;2023-07-13T09:59:43;2.08;;;1.10;;
54430;SDS011;40342;52.998;5.862;2023-07-13T10:02:30;2.65;;;1.20;;
54430;SDS011;40342;52.998;5.862;2023-07-13T10:05:05;2.25;;;1.00;;
54430;SDS011;40342;52.998;5.862;2023-07-13T10:07:39;3.47;;;0.80;;
54430;SDS011;40342;52.998;5.862;2023-07-13T10:10:17;2.97;;;1.10;;
54430;SDS011;40342;52.998;5.862;2023-07-13T10:12:47;3.15;;;1.20;;
54430;SDS011;40342;52.998;5.862;2023-07-13T10:15:17;2.33;;;1.00;;
54430;SDS011;40342;52.998;5.862;2023-07-13T10:17:46;2.17;;;1.20;;
54430;SDS011;40342;52.998;5.862;2023-07-13T10:20:13;4.47;;;1.35;;
54430;SDS011;40342;52.998;5.862;2023-07-13T10:25:21;2.08;;;0.82;;
54430;SDS011;40342;52.998;5.862;2023-07-13T10:27:50;1.95;;;1.10;;
54430;SDS011;40342;52.998;5.862;2023-07-13T10:30:27;4.25;;;1.15;;
54430;SDS011;40342;52.998;5.862;2023-07-13T10:33:00;4.32;;;1.27;;
54430;SDS011;40342;52.998;5.862;2023-07-13T10:35:28;4.95;;;1.83;;
54430;SDS011;40342;52.998;5.862;2023-07-13T10:37:57;3.53;;;1.20;;
54430;SDS011;40342;52.998;5.862;2023-07-13T10:43:17;3.22;;;1.20;;
54430;SDS011;40342;52.998;5.862;2023-07-13T10:45:48;6.20;;;1.55;;
54430;SDS011;40342;52.998;5.862;2023-07-13T10:48:15;3.42;;;1.20;;
54430;SDS011;40342;52.998;5.862;2023-07-13T10:50:43;1.90;;;1.00;;
54430;SDS011;40342;52.998;5.862;2023-07-13T10:53:19;3.47;;;1.20;;
54430;SDS011;40342;52.998;5.862;2023-07-13T11:00:53;3.95;;;1.50;;
54430;SDS011;40342;52.998;5.862;2023-07-13T11:03:28;2.50;;;1.40;;
54430;SDS011;40342;52.998;5.862;2023-07-13T11:18:47;2.70;;;1.10;;
54430;SDS011;40342;52.998;5.862;2023-07-13T11:23:51;4.93;;;1.13;;
54430;SDS011;40342;52.998;5.862;2023-07-13T11:29:24;2.58;;;1.02;;
54430;SDS011;40342;52.998;5.862;2023-07-13T11:31:57;3.97;;;1.20;;
54430;SDS011;40342;52.998;5.862;2023-07-13T11:34:44;2.83;;;1.00;;
54430;SDS011;40342;52.998;5.862;2023-07-13T11:37:10;2.13;;;1.10;;
54430;SDS011;40342;52.998;5.862;2023-07-13T11:39:41;2.22;;;1.10;;
54430;SDS011;40342;52.998;5.862;2023-07-13T11:42:10;3.13;;;1.45;;
54430;SDS011;40342;52.998;5.862;2023-07-13T11:44:46;2.58;;;1.00;;
54430;SDS011;40342;52.998;5.862;2023-07-13T11:47:18;3.15;;;1.08;;
54430;SDS011;40342;52.998;5.862;2023-07-13T11:49:50;3.83;;;1.10;;
54430;SDS011;40342;52.998;5.862;2023-07-13T11:52:22;4.05;;;1.35;;
54430;SDS011;40342;52.998;5.862;2023-07-13T11:54:54;6.60;;;1.15;;
54430;SDS011;40342;52.998;5.862;2023-07-13T11:57:25;5.45;;;1.10;;
54430;SDS011;40342;52.998;5.862;2023-07-13T11:59:59;4.43;;;1.23;;
54430;SDS011;40342;52.998;5.862;2023-07-13T12:02:39;5.57;;;1.17;;
54430;SDS011;40342;52.998;5.862;2023-07-13T12:05:10;5.30;;;1.40;;
54430;SDS011;40342;52.998;5.862;2023-07-13T12:07:38;5.68;;;1.17;;
54430;SDS011;40342;52.998;5.862;2023-07-13T12:10:17;3.00;;;1.40;;
54430;SDS011;40342;52.998;5.862;2023-07-13T12:12:55;1.80;;;0.90;;
54430;SDS011;40342;52.998;5.862;2023-07-13T12:15:22;2.42;;;1.20;;
54430;SDS011;40342;52.998;5.862;2023-07-13T12:17:53;3.25;;;1.00;;
54430;SDS011;40342;52.998;5.862;2023-07-13T12:20:25;3.50;;;1.00;;
54430;SDS011;40342;52.998;5.862;2023-07-13T12:22:52;3.20;;;0.80;;
54430;SDS011;40342;52.998;5.862;2023-07-13T12:25:19;3.60;;;1.40;;
54430;SDS011;40342;52.998;5.862;2023-07-13T12:27:46;3.00;;;1.13;;
54430;SDS011;40342;52.998;5.862;2023-07-13T12:30:26;3.20;;;1.35;;
54430;SDS011;40342;52.998;5.862;2023-07-13T12:35:40;1.92;;;0.70;;
54430;SDS011;40342;52.998;5.862;2023-07-13T12:38:10;4.65;;;1.25;;
54430;SDS011;40342;52.998;5.862;2023-07-13T12:40:37;2.67;;;1.17;;
54430;SDS011;40342;52.998;5.862;2023-07-13T12:43:05;1.63;;;1.08;;
54430;SDS011;40342;52.998;5.862;2023-07-13T12:45:39;4.68;;;1.00;;
54430;SDS011;40342;52.998;5.862;2023-07-13T12:48:24;4.60;;;1.40;;
54430;SDS011;40342;52.998;5.862;2023-07-13T12:50:50;3.10;;;1.35;;
54430;SDS011;40342;52.998;5.862;2023-07-13T12:53:20;6.38;;;1.08;;
54430;SDS011;40342;52.998;5.862;2023-07-13T12:55:55;5.07;;;1.30;;
54430;SDS011;40342;52.998;5.862;2023-07-13T12:58:29;1.95;;;0.77;;
54430;SDS011;40342;52.998;5.862;2023-07-13T13:01:07;3.55;;;1.27;;
54430;SDS011;40342;52.998;5.862;2023-07-13T13:03:35;3.45;;;1.35;;
54430;SDS011;40342;52.998;5.862;2023-07-13T13:08:53;1.35;;;0.70;;
54430;SDS011;40342;52.998;5.862;2023-07-13T13:11:22;2.20;;;0.90;;
54430;SDS011;40342;52.998;5.862;2023-07-13T13:13:48;5.03;;;1.73;;
54430;SDS011;40342;52.998;5.862;2023-07-13T13:19:23;3.50;;;1.42;;
54430;SDS011;40342;52.998;5.862;2023-07-13T13:21:51;2.72;;;1.10;;
54430;SDS011;40342;52.998;5.862;2023-07-13T13:24:21;4.78;;;1.38;;
54430;SDS011;40342;52.998;5.862;2023-07-13T13:26:50;2.47;;;1.20;;
54430;SDS011;40342;52.998;5.862;2023-07-13T13:29:17;5.70;;;1.63;;
54430;SDS011;40342;52.998;5.862;2023-07-13T13:31:45;2.80;;;1.25;;
54430;SDS011;40342;52.998;5.862;2023-07-13T13:34:11;3.65;;;1.15;;
54430;SDS011;40342;52.998;5.862;2023-07-13T13:36:40;6.35;;;1.40;;
54430;SDS011;40342;52.998;5.862;2023-07-13T13:39:23;3.25;;;1.20;;
54430;SDS011;40342;52.998;5.862;2023-07-13T13:41:52;3.50;;;1.23;;
54430;SDS011;40342;52.998;5.862;2023-07-13T13:44:19;2.70;;;0.90;;
54430;SDS011;40342;52.998;5.862;2023-07-13T13:46:46;4.00;;;1.33;;
54430;SDS011;40342;52.998;5.862;2023-07-13T13:49:15;4.25;;;1.23;;
54430;SDS011;40342;52.998;5.862;2023-07-13T13:51:42;3.67;;;1.30;;
54430;SDS011;40342;52.998;5.862;2023-07-13T13:54:10;4.80;;;1.75;;
54430;SDS011;40342;52.998;5.862;2023-07-13T13:56:36;4.63;;;1.20;;
54430;SDS011;40342;52.998;5.862;2023-07-13T13:59:03;2.00;;;1.10;;
54430;SDS011;40342;52.998;5.862;2023-07-13T14:01:29;4.78;;;1.10;;
54430;SDS011;40342;52.998;5.862;2023-07-13T14:03:56;3.70;;;1.40;;
54430;SDS011;40342;52.998;5.862;2023-07-13T14:06:24;2.05;;;1.10;;
54430;SDS011;40342;52.998;5.862;2023-07-13T14:08:50;3.17;;;1.40;;
54430;SDS011;40342;52.998;5.862;2023-07-13T14:11:16;3.05;;;1.20;;
54430;SDS011;40342;52.998;5.862;2023-07-13T14:13:48;4.90;;;1.30;;
54430;SDS011;40342;52.998;5.862;2023-07-13T14:16:22;2.20;;;0.82;;
54430;SDS011;40342;52.998;5.862;2023-07-13T14:18:59;3.85;;;1.38;;
54430;SDS011;40342;52.998;5.862;2023-07-13T14:21:25;4.78;;;1.55;;
54430;SDS011;40342;52.998;5.862;2023-07-13T14:23:52;4.82;;;1.40;;
54430;SDS011;40342;52.998;5.862;2023-07-13T14:26:22;2.88;;;1.15;;
54430;SDS011;40342;52.998;5.862;2023-07-13T14:28:50;5.63;;;1.58;;
54430;SDS011;40342;52.998;5.862;2023-07-13T14:31:20;3.58;;;1.27;;
54430;SDS011;40342;52.998;5.862;2023-07-13T14:33:46;1.90;;;0.90;;
54430;SDS011;40342;52.998;5.862;2023-07-13T14:36:40;3.55;;;1.30;;
54430;SDS011;40342;52.998;5.862;2023-07-13T14:39:05;3.45;;;1.30;;
54430;SDS011;40342;52.998;5.862;2023-07-13T14:41:49;3.47;;;1.13;;
54430;SDS011;40342;52.998;5.862;2023-07-13T14:44:17;3.63;;;1.38;;
54430;SDS011;40342;52.998;5.862;2023-07-13T14:46:45;3.92;;;1.67;;
54430;SDS011;40342;52.998;5.862;2023-07-13T14:52:17;5.07;;;1.55;;
54430;SDS011;40342;52.998;5.862;2023-07-13T14:54:45;3.20;;;1.50;;
54430;SDS011;40342;52.998;5.862;2023-07-13T14:57:15;4.80;;;1.50;;
54430;SDS011;40342;52.998;5.862;2023-07-13T14:59:43;5.95;;;1.13;;
54430;SDS011;40342;52.998;5.862;2023-07-13T15:02:17;6.88;;;1.65;;
54430;SDS011;40342;52.998;5.862;2023-07-13T15:04:51;2.88;;;1.17;;
54430;SDS011;40342;52.998;5.862;2023-07-13T15:07:17;3.00;;;1.52;;
54430;SDS011;40342;52.998;5.862;2023-07-13T15:09:44;4.95;;;1.52;;
54430;SDS011;40342;52.998;5.862;2023-07-13T15:12:09;5.88;;;1.17;;
54430;SDS011;40342;52.998;5.862;2023-07-13T15:14:35;6.35;;;1.40;;
54430;SDS011;40342;52.998;5.862;2023-07-13T15:17:01;6.57;;;1.77;;
54430;SDS011;40342;52.998;5.862;2023-07-13T15:19:27;3.50;;;1.20;;
54430;SDS011;40342;52.998;5.862;2023-07-13T15:21:56;3.13;;;1.13;;
54430;SDS011;40342;52.998;5.862;2023-07-13T15:24:22;6.57;;;1.70;;
54430;SDS011;40342;52.998;5.862;2023-07-13T15:26:49;4.13;;;1.38;;
54430;SDS011;40342;52.998;5.862;2023-07-13T15:29:15;4.22;;;1.50;;
54430;SDS011;40342;52.998;5.862;2023-07-13T15:31:41;4.78;;;1.20;;
54430;SDS011;40342;52.998;5.862;2023-07-13T15:34:11;2.92;;;1.33;;
54430;SDS011;40342;52.998;5.862;2023-07-13T15:36:39;2.55;;;1.20;;
54430;SDS011;40342;52.998;5.862;2023-07-13T15:39:05;3.85;;;1.58;;
54430;SDS011;40342;52.998;5.862;2023-07-13T15:41:31;3.30;;;1.10;;
54430;SDS011;40342;52.998;5.862;2023-07-13T15:43:58;2.78;;;1.20;;
54430;SDS011;40342;52.998;5.862;2023-07-13T15:46:26;2.97;;;1.10;;
54430;SDS011;40342;52.998;5.862;2023-07-13T15:48:53;3.17;;;1.42;;